sensor_id;sensor_type;location;lat;lon;timestamp;P1;durP1;ratioP1;P2;durP2;ratioP2
6898;SDS011;3488;42.616;23.350;2022-08-19T00:01:26;4.50;;;4.30;;
6898;SDS011;3488;42.616;23.350;2022-08-19T00:03:54;5.13;;;4.65;;
6898;SDS011;3488;42.616;23.350;2022-08-19T00:06:22;4.43;;;4.13;;
6898;SDS011;3488;42.616;23.350;2022-08-19T00:08:50;4.65;;;4.25;;
6898;SDS011;3488;42.616;23.350;2022-08-19T00:11:18;4.95;;;4.57;;
6898;SDS011;3488;42.616;23.350;2022-08-19T00:13:48;4.07;;;3.88;;
6898;SDS011;3488;42.616;23.350;2022-08-19T00:16:16;4.07;;;3.85;;
6898;SDS011;3488;42.616;23.350;2022-08-19T00:18:48;5.25;;;4.75;;
6898;SDS011;3488;42.616;23.350;2022-08-19T00:21:20;4.35;;;4.15;;
6898;SDS011;3488;42.616;23.350;2022-08-19T00:23:49;4.47;;;4.07;;
6898;SDS011;3488;42.616;23.350;2022-08-19T00:26:17;4.63;;;4.30;;
6898;SDS011;3488;42.616;23.350;2022-08-19T00:28:44;4.70;;;4.50;;
6898;SDS011;3488;42.616;23.350;2022-08-19T00:31:17;5.25;;;4.95;;
6898;SDS011;3488;42.616;23.350;2022-08-19T00:33:47;6.93;;;5.05;;
6898;SDS011;3488;42.616;23.350;2022-08-19T00:36:15;4.78;;;4.38;;
6898;SDS011;3488;42.616;23.350;2022-08-19T00:38:44;4.82;;;4.38;;
6898;SDS011;3488;42.616;23.350;2022-08-19T00:41:12;5.47;;;4.97;;
6898;SDS011;3488;42.616;23.350;2022-08-19T00:43:41;4.93;;;4.50;;
6898;SDS011;3488;42.616;23.350;2022-08-19T00:46:09;4.13;;;3.72;;
6898;SDS011;3488;42.616;23.350;2022-08-19T00:48:38;5.10;;;4.70;;
6898;SDS011;3488;42.616;23.350;2022-08-19T00:51:06;4.80;;;4.50;;
6898;SDS011;3488;42.616;23.350;2022-08-19T00:53:34;4.32;;;3.92;;
6898;SDS011;3488;42.616;23.350;2022-08-19T00:56:02;5.30;;;4.80;;
6898;SDS011;3488;42.616;23.350;2022-08-19T00:58:32;4.05;;;3.85;;
6898;SDS011;3488;42.616;23.350;2022-08-19T01:01:01;5.03;;;4.72;;
6898;SDS011;3488;42.616;23.350;2022-08-19T01:03:28;5.07;;;4.47;;
6898;SDS011;3488;42.616;23.350;2022-08-19T01:05:56;5.47;;;4.95;;
6898;SDS011;3488;42.616;23.350;2022-08-19T01:08:24;5.18;;;4.75;;
6898;SDS011;3488;42.616;23.350;2022-08-19T01:10:52;4.60;;;4.30;;
6898;SDS011;3488;42.616;23.350;2022-08-19T01:13:23;4.50;;;4.18;;
6898;SDS011;3488;42.616;23.350;2022-08-19T01:15:54;4.93;;;4.63;;
6898;SDS011;3488;42.616;23.350;2022-08-19T01:18:24;4.05;;;3.85;;
6898;SDS011;3488;42.616;23.350;2022-08-19T01:20:53;5.25;;;4.40;;
6898;SDS011;3488;42.616;23.350;2022-08-19T01:23:24;6.20;;;4.70;;
6898;SDS011;3488;42.616;23.350;2022-08-19T01:26:07;5.00;;;4.70;;
6898;SDS011;3488;42.616;23.350;2022-08-19T01:28:35;4.72;;;4.35;;
6898;SDS011;3488;42.616;23.350;2022-08-19T01:31:03;4.72;;;4.40;;
6898;SDS011;3488;42.616;23.350;2022-08-19T01:33:31;6.05;;;4.63;;
6898;SDS011;3488;42.616;23.350;2022-08-19T01:36:03;5.35;;;5.05;;
6898;SDS011;3488;42.616;23.350;2022-08-19T01:38:34;4.53;;;4.22;;
6898;SDS011;3488;42.616;23.350;2022-08-19T01:41:02;5.63;;;5.22;;
6898;SDS011;3488;42.616;23.350;2022-08-19T01:43:31;4.82;;;4.50;;
6898;SDS011;3488;42.616;23.350;2022-08-19T01:45:58;6.57;;;5.35;;
6898;SDS011;3488;42.616;23.350;2022-08-19T01:48:26;5.22;;;4.47;;
6898;SDS011;3488;42.616;23.350;2022-08-19T01:50:54;4.65;;;4.35;;
6898;SDS011;3488;42.616;23.350;2022-08-19T01:53:22;4.47;;;4.18;;
6898;SDS011;3488;42.616;23.350;2022-08-19T01:55:50;5.95;;;5.47;;
6898;SDS011;3488;42.616;23.350;2022-08-19T01:58:18;5.03;;;4.70;;
6898;SDS011;3488;42.616;23.350;2022-08-19T02:00:47;4.80;;;4.50;;
6898;SDS011;3488;42.616;23.350;2022-08-19T02:03:14;5.45;;;4.97;;
6898;SDS011;3488;42.616;23.350;2022-08-19T02:05:42;5.07;;;4.72;;
6898;SDS011;3488;42.616;23.350;2022-08-19T02:08:10;5.45;;;5.05;;
6898;SDS011;3488;42.616;23.350;2022-08-19T02:10:39;5.28;;;4.78;;
6898;SDS011;3488;42.616;23.350;2022-08-19T02:13:08;4.90;;;4.68;;
6898;SDS011;3488;42.616;23.350;2022-08-19T02:15:36;5.40;;;5.10;;
6898;SDS011;3488;42.616;23.350;2022-08-19T02:18:04;4.63;;;4.32;;
6898;SDS011;3488;42.616;23.350;2022-08-19T02:20:33;4.90;;;4.60;;
6898;SDS011;3488;42.616;23.350;2022-08-19T02:23:00;4.47;;;4.20;;
6898;SDS011;3488;42.616;23.350;2022-08-19T02:25:27;5.00;;;4.05;;
6898;SDS011;3488;42.616;23.350;2022-08-19T02:27:55;5.28;;;4.78;;
6898;SDS011;3488;42.616;23.350;2022-08-19T02:30:23;5.25;;;4.85;;
6898;SDS011;3488;42.616;23.350;2022-08-19T02:32:51;5.10;;;4.70;;
6898;SDS011;3488;42.616;23.350;2022-08-19T02:35:19;4.80;;;4.50;;
6898;SDS011;3488;42.616;23.350;2022-08-19T02:37:46;5.10;;;4.65;;
6898;SDS011;3488;42.616;23.350;2022-08-19T02:40:32;5.30;;;4.80;;
6898;SDS011;3488;42.616;23.350;2022-08-19T02:43:00;5.15;;;4.60;;
6898;SDS011;3488;42.616;23.350;2022-08-19T02:45:32;4.78;;;4.47;;
6898;SDS011;3488;42.616;23.350;2022-08-19T02:48:00;5.35;;;4.85;;
6898;SDS011;3488;42.616;23.350;2022-08-19T02:50:27;5.10;;;4.80;;
6898;SDS011;3488;42.616;23.350;2022-08-19T02:52:55;5.10;;;4.70;;
6898;SDS011;3488;42.616;23.350;2022-08-19T02:55:22;5.03;;;4.63;;
6898;SDS011;3488;42.616;23.350;2022-08-19T02:57:49;8.45;;;4.70;;
6898;SDS011;3488;42.616;23.350;2022-08-19T03:00:17;4.70;;;4.40;;
6898;SDS011;3488;42.616;23.350;2022-08-19T03:02:45;4.60;;;4.30;;
6898;SDS011;3488;42.616;23.350;2022-08-19T03:05:13;5.85;;;5.45;;
6898;SDS011;3488;42.616;23.350;2022-08-19T03:07:41;5.78;;;5.25;;
6898;SDS011;3488;42.616;23.350;2022-08-19T03:10:08;5.50;;;4.55;;
6898;SDS011;3488;42.616;23.350;2022-08-19T03:12:36;5.63;;;5.22;;
6898;SDS011;3488;42.616;23.350;2022-08-19T03:15:04;5.15;;;4.75;;
6898;SDS011;3488;42.616;23.350;2022-08-19T03:17:33;4.85;;;4.55;;
6898;SDS011;3488;42.616;23.350;2022-08-19T03:20:02;5.82;;;5.43;;
6898;SDS011;3488;42.616;23.350;2022-08-19T03:22:30;5.40;;;5.00;;
6898;SDS011;3488;42.616;23.350;2022-08-19T03:24:57;5.93;;;5.32;;
6898;SDS011;3488;42.616;23.350;2022-08-19T03:27:24;5.82;;;5.20;;
6898;SDS011;3488;42.616;23.350;2022-08-19T03:29:52;5.38;;;4.85;;
6898;SDS011;3488;42.616;23.350;2022-08-19T03:32:19;5.57;;;5.18;;
6898;SDS011;3488;42.616;23.350;2022-08-19T03:34:47;4.95;;;4.55;;
6898;SDS011;3488;42.616;23.350;2022-08-19T03:37:15;5.75;;;4.90;;
6898;SDS011;3488;42.616;23.350;2022-08-19T03:39:42;5.55;;;5.05;;
6898;SDS011;3488;42.616;23.350;2022-08-19T03:42:10;4.82;;;4.53;;
6898;SDS011;3488;42.616;23.350;2022-08-19T03:44:38;5.40;;;5.00;;
6898;SDS011;3488;42.616;23.350;2022-08-19T03:47:07;5.75;;;4.45;;
6898;SDS011;3488;42.616;23.350;2022-08-19T03:49:34;5.30;;;4.90;;
6898;SDS011;3488;42.616;23.350;2022-08-19T03:52:01;5.25;;;4.82;;
6898;SDS011;3488;42.616;23.350;2022-08-19T03:54:34;5.20;;;4.57;;
6898;SDS011;3488;42.616;23.350;2022-08-19T03:57:03;4.85;;;4.45;;
6898;SDS011;3488;42.616;23.350;2022-08-19T03:59:31;4.43;;;4.20;;
6898;SDS011;3488;42.616;23.350;2022-08-19T04:02:01;5.53;;;4.18;;
6898;SDS011;3488;42.616;23.350;2022-08-19T04:04:34;5.32;;;4.38;;
6898;SDS011;3488;42.616;23.350;2022-08-19T04:07:01;5.10;;;4.63;;
6898;SDS011;3488;42.616;23.350;2022-08-19T04:09:28;7.28;;;5.13;;
6898;SDS011;3488;42.616;23.350;2022-08-19T04:11:57;6.70;;;6.18;;
6898;SDS011;3488;42.616;23.350;2022-08-19T04:14:25;5.65;;;5.15;;
6898;SDS011;3488;42.616;23.350;2022-08-19T04:16:55;6.28;;;5.78;;
6898;SDS011;3488;42.616;23.350;2022-08-19T04:19:22;5.97;;;5.50;;
6898;SDS011;3488;42.616;23.350;2022-08-19T04:21:51;4.97;;;4.68;;
6898;SDS011;3488;42.616;23.350;2022-08-19T04:24:20;7.10;;;5.57;;
6898;SDS011;3488;42.616;23.350;2022-08-19T04:26:48;9.27;;;5.95;;
6898;SDS011;3488;42.616;23.350;2022-08-19T04:29:17;7.78;;;6.30;;
6898;SDS011;3488;42.616;23.350;2022-08-19T04:31:48;9.88;;;6.20;;
6898;SDS011;3488;42.616;23.350;2022-08-19T04:34:16;7.65;;;5.78;;
6898;SDS011;3488;42.616;23.350;2022-08-19T04:36:47;7.32;;;6.47;;
6898;SDS011;3488;42.616;23.350;2022-08-19T04:39:17;7.65;;;6.88;;
6898;SDS011;3488;42.616;23.350;2022-08-19T04:41:46;6.05;;;5.55;;
6898;SDS011;3488;42.616;23.350;2022-08-19T04:44:32;7.47;;;5.97;;
6898;SDS011;3488;42.616;23.350;2022-08-19T04:47:00;5.30;;;4.90;;
6898;SDS011;3488;42.616;23.350;2022-08-19T04:49:30;5.95;;;5.45;;
6898;SDS011;3488;42.616;23.350;2022-08-19T04:51:58;7.03;;;6.47;;
6898;SDS011;3488;42.616;23.350;2022-08-19T04:54:25;9.88;;;5.88;;
6898;SDS011;3488;42.616;23.350;2022-08-19T04:56:52;6.03;;;5.57;;
6898;SDS011;3488;42.616;23.350;2022-08-19T04:59:19;5.30;;;4.90;;
6898;SDS011;3488;42.616;23.350;2022-08-19T05:01:49;7.75;;;6.60;;
6898;SDS011;3488;42.616;23.350;2022-08-19T05:04:17;6.07;;;5.40;;
6898;SDS011;3488;42.616;23.350;2022-08-19T05:06:46;6.80;;;6.20;;
6898;SDS011;3488;42.616;23.350;2022-08-19T05:09:14;6.30;;;5.80;;
6898;SDS011;3488;42.616;23.350;2022-08-19T05:11:42;6.47;;;5.85;;
6898;SDS011;3488;42.616;23.350;2022-08-19T05:14:10;6.82;;;5.65;;
6898;SDS011;3488;42.616;23.350;2022-08-19T05:16:39;5.55;;;5.18;;
6898;SDS011;3488;42.616;23.350;2022-08-19T05:19:08;6.68;;;4.82;;
6898;SDS011;3488;42.616;23.350;2022-08-19T05:21:52;5.47;;;5.07;;
6898;SDS011;3488;42.616;23.350;2022-08-19T05:24:37;5.35;;;4.95;;
6898;SDS011;3488;42.616;23.350;2022-08-19T05:27:04;5.43;;;5.03;;
6898;SDS011;3488;42.616;23.350;2022-08-19T05:29:32;5.35;;;4.97;;
6898;SDS011;3488;42.616;23.350;2022-08-19T05:32:00;5.68;;;5.15;;
6898;SDS011;3488;42.616;23.350;2022-08-19T05:34:32;7.88;;;5.50;;
6898;SDS011;3488;42.616;23.350;2022-08-19T05:37:01;5.60;;;5.20;;
6898;SDS011;3488;42.616;23.350;2022-08-19T05:39:30;8.40;;;5.80;;
6898;SDS011;3488;42.616;23.350;2022-08-19T05:41:59;6.28;;;5.72;;
6898;SDS011;3488;42.616;23.350;2022-08-19T05:44:29;13.30;;;6.43;;
6898;SDS011;3488;42.616;23.350;2022-08-19T05:46:59;9.43;;;6.43;;
6898;SDS011;3488;42.616;23.350;2022-08-19T05:49:27;14.50;;;6.57;;
6898;SDS011;3488;42.616;23.350;2022-08-19T05:51:57;11.13;;;6.28;;
6898;SDS011;3488;42.616;23.350;2022-08-19T05:54:24;6.05;;;5.43;;
6898;SDS011;3488;42.616;23.350;2022-08-19T05:56:52;10.38;;;5.70;;
6898;SDS011;3488;42.616;23.350;2022-08-19T05:59:20;11.13;;;6.70;;
6898;SDS011;3488;42.616;23.350;2022-08-19T06:01:49;16.75;;;7.32;;
6898;SDS011;3488;42.616;23.350;2022-08-19T06:04:19;7.65;;;6.90;;
6898;SDS011;3488;42.616;23.350;2022-08-19T06:37:07;6.78;;;6.07;;
6898;SDS011;3488;42.616;23.350;2022-08-19T06:39:36;5.95;;;5.45;;
6898;SDS011;3488;42.616;23.350;2022-08-19T06:42:05;9.25;;;5.72;;
6898;SDS011;3488;42.616;23.350;2022-08-19T06:44:35;7.13;;;5.47;;
6898;SDS011;3488;42.616;23.350;2022-08-19T06:47:04;9.55;;;5.72;;
6898;SDS011;3488;42.616;23.350;2022-08-19T06:49:33;9.35;;;5.97;;
6898;SDS011;3488;42.616;23.350;2022-08-19T06:52:02;14.80;;;6.15;;
6898;SDS011;3488;42.616;23.350;2022-08-19T06:54:31;6.95;;;6.15;;
6898;SDS011;3488;42.616;23.350;2022-08-19T06:56:59;7.25;;;6.25;;
6898;SDS011;3488;42.616;23.350;2022-08-19T06:59:27;12.43;;;6.63;;
6898;SDS011;3488;42.616;23.350;2022-08-19T07:01:58;9.48;;;5.82;;
6898;SDS011;3488;42.616;23.350;2022-08-19T07:04:27;8.32;;;6.40;;
6898;SDS011;3488;42.616;23.350;2022-08-19T07:06:56;7.03;;;6.05;;
6898;SDS011;3488;42.616;23.350;2022-08-19T07:09:25;6.03;;;5.53;;
6898;SDS011;3488;42.616;23.350;2022-08-19T07:11:55;7.50;;;5.72;;
6898;SDS011;3488;42.616;23.350;2022-08-19T07:14:23;8.00;;;5.50;;
6898;SDS011;3488;42.616;23.350;2022-08-19T07:16:53;6.78;;;5.60;;
6898;SDS011;3488;42.616;23.350;2022-08-19T07:19:22;7.82;;;6.15;;
6898;SDS011;3488;42.616;23.350;2022-08-19T07:21:53;8.02;;;5.82;;
6898;SDS011;3488;42.616;23.350;2022-08-19T07:24:21;8.23;;;5.18;;
6898;SDS011;3488;42.616;23.350;2022-08-19T07:26:50;5.85;;;5.35;;
6898;SDS011;3488;42.616;23.350;2022-08-19T07:29:21;6.20;;;5.70;;
6898;SDS011;3488;42.616;23.350;2022-08-19T07:31:49;6.65;;;6.05;;
6898;SDS011;3488;42.616;23.350;2022-08-19T07:34:17;6.63;;;6.00;;
6898;SDS011;3488;42.616;23.350;2022-08-19T07:36:45;6.38;;;5.63;;
6898;SDS011;3488;42.616;23.350;2022-08-19T07:39:16;6.10;;;5.60;;
6898;SDS011;3488;42.616;23.350;2022-08-19T07:41:45;6.10;;;5.60;;
6898;SDS011;3488;42.616;23.350;2022-08-19T07:44:14;5.60;;;5.20;;
6898;SDS011;3488;42.616;23.350;2022-08-19T07:46:44;6.45;;;5.68;;
6898;SDS011;3488;42.616;23.350;2022-08-19T07:49:13;7.85;;;5.72;;
6898;SDS011;3488;42.616;23.350;2022-08-19T07:51:44;5.97;;;5.47;;
6898;SDS011;3488;42.616;23.350;2022-08-19T07:54:12;10.18;;;6.18;;
6898;SDS011;3488;42.616;23.350;2022-08-19T07:56:39;8.65;;;5.63;;
6898;SDS011;3488;42.616;23.350;2022-08-19T07:59:07;5.28;;;4.97;;
6898;SDS011;3488;42.616;23.350;2022-08-19T08:01:34;6.15;;;5.07;;
6898;SDS011;3488;42.616;23.350;2022-08-19T08:04:03;8.63;;;6.35;;
6898;SDS011;3488;42.616;23.350;2022-08-19T08:06:47;6.63;;;5.95;;
6898;SDS011;3488;42.616;23.350;2022-08-19T08:09:33;7.13;;;6.07;;
6898;SDS011;3488;42.616;23.350;2022-08-19T08:12:04;10.98;;;5.38;;
6898;SDS011;3488;42.616;23.350;2022-08-19T08:14:33;9.20;;;6.43;;
6898;SDS011;3488;42.616;23.350;2022-08-19T08:17:04;7.07;;;5.20;;
6898;SDS011;3488;42.616;23.350;2022-08-19T08:30:02;11.98;;;6.45;;
6898;SDS011;3488;42.616;23.350;2022-08-19T08:32:39;5.20;;;4.80;;
6898;SDS011;3488;42.616;23.350;2022-08-19T08:35:30;7.22;;;4.90;;
6898;SDS011;3488;42.616;23.350;2022-08-19T08:38:02;8.20;;;4.55;;
6898;SDS011;3488;42.616;23.350;2022-08-19T08:40:38;5.88;;;4.60;;
6898;SDS011;3488;42.616;23.350;2022-08-19T08:43:19;5.00;;;4.60;;
6898;SDS011;3488;42.616;23.350;2022-08-19T08:45:59;6.25;;;4.63;;
6898;SDS011;3488;42.616;23.350;2022-08-19T08:48:33;5.53;;;3.97;;
6898;SDS011;3488;42.616;23.350;2022-08-19T08:51:15;7.53;;;5.03;;
6898;SDS011;3488;42.616;23.350;2022-08-19T08:53:53;5.00;;;4.55;;
6898;SDS011;3488;42.616;23.350;2022-08-19T08:56:33;6.47;;;4.25;;
6898;SDS011;3488;42.616;23.350;2022-08-19T08:59:10;5.22;;;4.80;;
6898;SDS011;3488;42.616;23.350;2022-08-19T09:05:11;8.05;;;4.28;;
6898;SDS011;3488;42.616;23.350;2022-08-19T09:07:44;4.22;;;4.03;;
6898;SDS011;3488;42.616;23.350;2022-08-19T09:23:16;6.18;;;4.10;;
6898;SDS011;3488;42.616;23.350;2022-08-19T09:25:43;4.47;;;4.13;;
6898;SDS011;3488;42.616;23.350;2022-08-19T09:28:10;4.72;;;4.22;;
6898;SDS011;3488;42.616;23.350;2022-08-19T09:30:38;3.95;;;3.75;;
6898;SDS011;3488;42.616;23.350;2022-08-19T09:33:07;4.75;;;4.40;;
6898;SDS011;3488;42.616;23.350;2022-08-19T09:35:34;4.43;;;3.67;;
6898;SDS011;3488;42.616;23.350;2022-08-19T09:40:32;3.72;;;3.53;;
6898;SDS011;3488;42.616;23.350;2022-08-19T09:43:00;4.75;;;3.65;;
6898;SDS011;3488;42.616;23.350;2022-08-19T09:45:28;3.80;;;3.60;;
6898;SDS011;3488;42.616;23.350;2022-08-19T09:47:55;3.58;;;3.35;;
6898;SDS011;3488;42.616;23.350;2022-08-19T09:50:23;5.07;;;3.70;;
6898;SDS011;3488;42.616;23.350;2022-08-19T09:52:50;4.05;;;3.70;;
6898;SDS011;3488;42.616;23.350;2022-08-19T09:55:22;4.18;;;3.38;;
6898;SDS011;3488;42.616;23.350;2022-08-19T09:57:50;3.97;;;3.72;;
6898;SDS011;3488;42.616;23.350;2022-08-19T10:00:20;3.35;;;3.15;;
6898;SDS011;3488;42.616;23.350;2022-08-19T10:02:47;6.60;;;3.67;;
6898;SDS011;3488;42.616;23.350;2022-08-19T10:05:13;3.72;;;3.38;;
6898;SDS011;3488;42.616;23.350;2022-08-19T10:07:58;4.78;;;3.78;;
6898;SDS011;3488;42.616;23.350;2022-08-19T10:10:25;3.03;;;2.83;;
6898;SDS011;3488;42.616;23.350;2022-08-19T10:12:54;4.40;;;4.00;;
6898;SDS011;3488;42.616;23.350;2022-08-19T10:15:21;4.68;;;4.32;;
6898;SDS011;3488;42.616;23.350;2022-08-19T10:17:48;4.43;;;4.00;;
6898;SDS011;3488;42.616;23.350;2022-08-19T10:20:15;4.82;;;4.38;;
6898;SDS011;3488;42.616;23.350;2022-08-19T10:22:42;5.07;;;4.38;;
6898;SDS011;3488;42.616;23.350;2022-08-19T10:43:09;4.70;;;4.20;;
6898;SDS011;3488;42.616;23.350;2022-08-19T10:45:38;4.55;;;4.15;;
6898;SDS011;3488;42.616;23.350;2022-08-19T10:48:07;5.45;;;4.60;;
6898;SDS011;3488;42.616;23.350;2022-08-19T10:50:47;4.22;;;4.03;;
6898;SDS011;3488;42.616;23.350;2022-08-19T10:56:18;4.63;;;4.32;;
6898;SDS011;3488;42.616;23.350;2022-08-19T11:02:15;4.38;;;4.03;;
6898;SDS011;3488;42.616;23.350;2022-08-19T11:04:47;4.95;;;3.85;;
6898;SDS011;3488;42.616;23.350;2022-08-19T11:07:17;7.10;;;4.10;;
6898;SDS011;3488;42.616;23.350;2022-08-19T11:10:01;4.50;;;4.20;;
6898;SDS011;3488;42.616;23.350;2022-08-19T11:12:36;6.15;;;4.43;;
6898;SDS011;3488;42.616;23.350;2022-08-19T11:15:19;5.22;;;4.82;;
6898;SDS011;3488;42.616;23.350;2022-08-19T11:17:54;4.18;;;3.97;;
6898;SDS011;3488;42.616;23.350;2022-08-19T11:20:32;5.80;;;3.97;;
6898;SDS011;3488;42.616;23.350;2022-08-19T11:23:04;4.80;;;4.50;;
6898;SDS011;3488;42.616;23.350;2022-08-19T11:25:40;4.95;;;4.13;;
6898;SDS011;3488;42.616;23.350;2022-08-19T11:28:14;4.00;;;3.70;;
6898;SDS011;3488;42.616;23.350;2022-08-19T11:39:14;4.78;;;4.47;;
6898;SDS011;3488;42.616;23.350;2022-08-19T11:41:42;5.00;;;4.60;;
6898;SDS011;3488;42.616;23.350;2022-08-19T11:44:09;5.85;;;4.28;;
6898;SDS011;3488;42.616;23.350;2022-08-19T11:46:39;4.35;;;3.95;;
6898;SDS011;3488;42.616;23.350;2022-08-19T11:49:11;4.90;;;4.25;;
6898;SDS011;3488;42.616;23.350;2022-08-19T11:51:39;4.78;;;4.45;;
6898;SDS011;3488;42.616;23.350;2022-08-19T11:54:07;5.25;;;4.32;;
6898;SDS011;3488;42.616;23.350;2022-08-19T11:56:36;4.68;;;4.20;;
6898;SDS011;3488;42.616;23.350;2022-08-19T11:59:03;4.05;;;3.85;;
6898;SDS011;3488;42.616;23.350;2022-08-19T12:01:31;5.32;;;4.30;;
6898;SDS011;3488;42.616;23.350;2022-08-19T12:03:58;5.05;;;4.20;;
6898;SDS011;3488;42.616;23.350;2022-08-19T12:06:26;5.43;;;4.45;;
6898;SDS011;3488;42.616;23.350;2022-08-19T12:08:54;6.80;;;4.32;;
6898;SDS011;3488;42.616;23.350;2022-08-19T12:11:22;4.53;;;4.22;;
6898;SDS011;3488;42.616;23.350;2022-08-19T12:13:51;4.72;;;4.32;;
6898;SDS011;3488;42.616;23.350;2022-08-19T12:16:19;5.13;;;4.30;;
6898;SDS011;3488;42.616;23.350;2022-08-19T12:18:49;9.07;;;4.78;;
6898;SDS011;3488;42.616;23.350;2022-08-19T12:21:16;4.78;;;4.30;;
6898;SDS011;3488;42.616;23.350;2022-08-19T12:23:46;6.78;;;4.47;;
6898;SDS011;3488;42.616;23.350;2022-08-19T12:26:15;5.45;;;4.95;;
6898;SDS011;3488;42.616;23.350;2022-08-19T12:28:43;5.60;;;4.40;;
6898;SDS011;3488;42.616;23.350;2022-08-19T12:31:12;4.82;;;4.43;;
6898;SDS011;3488;42.616;23.350;2022-08-19T12:33:39;4.80;;;4.40;;
6898;SDS011;3488;42.616;23.350;2022-08-19T12:36:08;4.03;;;3.72;;
6898;SDS011;3488;42.616;23.350;2022-08-19T12:38:37;7.15;;;4.80;;
6898;SDS011;3488;42.616;23.350;2022-08-19T12:41:05;6.78;;;5.10;;
6898;SDS011;3488;42.616;23.350;2022-08-19T12:43:35;5.18;;;4.72;;
6898;SDS011;3488;42.616;23.350;2022-08-19T12:46:03;4.82;;;4.50;;
6898;SDS011;3488;42.616;23.350;2022-08-19T12:48:33;5.13;;;4.63;;
6898;SDS011;3488;42.616;23.350;2022-08-19T12:51:00;5.93;;;5.18;;
6898;SDS011;3488;42.616;23.350;2022-08-19T12:53:31;5.60;;;5.10;;
6898;SDS011;3488;42.616;23.350;2022-08-19T12:55:58;4.82;;;4.43;;
6898;SDS011;3488;42.616;23.350;2022-08-19T12:58:26;5.90;;;5.07;;
6898;SDS011;3488;42.616;23.350;2022-08-19T13:00:53;5.00;;;4.25;;
6898;SDS011;3488;42.616;23.350;2022-08-19T13:03:20;4.88;;;4.65;;
6898;SDS011;3488;42.616;23.350;2022-08-19T13:05:55;5.10;;;4.43;;
6898;SDS011;3488;42.616;23.350;2022-08-19T13:08:22;5.68;;;4.97;;
6898;SDS011;3488;42.616;23.350;2022-08-19T13:10:50;5.30;;;4.63;;
6898;SDS011;3488;42.616;23.350;2022-08-19T13:13:17;6.13;;;5.53;;
6898;SDS011;3488;42.616;23.350;2022-08-19T13:15:43;8.43;;;4.88;;
6898;SDS011;3488;42.616;23.350;2022-08-19T13:18:11;5.57;;;5.18;;
6898;SDS011;3488;42.616;23.350;2022-08-19T13:20:41;5.10;;;4.28;;
6898;SDS011;3488;42.616;23.350;2022-08-19T13:23:09;5.60;;;5.20;;
6898;SDS011;3488;42.616;23.350;2022-08-19T13:25:36;5.25;;;4.70;;
6898;SDS011;3488;42.616;23.350;2022-08-19T13:28:04;5.00;;;4.70;;
6898;SDS011;3488;42.616;23.350;2022-08-19T13:30:32;5.10;;;4.80;;
6898;SDS011;3488;42.616;23.350;2022-08-19T13:33:17;5.35;;;4.95;;
6898;SDS011;3488;42.616;23.350;2022-08-19T13:35:45;5.57;;;5.07;;
6898;SDS011;3488;42.616;23.350;2022-08-19T13:38:16;5.63;;;5.05;;
6898;SDS011;3488;42.616;23.350;2022-08-19T13:40:45;4.63;;;4.32;;
6898;SDS011;3488;42.616;23.350;2022-08-19T13:43:14;4.88;;;4.65;;
6898;SDS011;3488;42.616;23.350;2022-08-19T13:45:42;5.82;;;4.60;;
6898;SDS011;3488;42.616;23.350;2022-08-19T13:48:10;4.93;;;4.63;;
6898;SDS011;3488;42.616;23.350;2022-08-19T13:50:38;5.18;;;4.70;;
6898;SDS011;3488;42.616;23.350;2022-08-19T13:53:07;5.25;;;4.72;;
6898;SDS011;3488;42.616;23.350;2022-08-19T13:55:36;5.20;;;4.78;;
6898;SDS011;3488;42.616;23.350;2022-08-19T13:58:03;6.30;;;4.75;;
6898;SDS011;3488;42.616;23.350;2022-08-19T14:00:32;5.90;;;4.95;;
6898;SDS011;3488;42.616;23.350;2022-08-19T14:03:01;5.47;;;5.10;;
6898;SDS011;3488;42.616;23.350;2022-08-19T14:05:29;5.47;;;5.07;;
6898;SDS011;3488;42.616;23.350;2022-08-19T14:07:57;5.13;;;4.82;;
6898;SDS011;3488;42.616;23.350;2022-08-19T14:10:25;5.72;;;5.18;;
6898;SDS011;3488;42.616;23.350;2022-08-19T14:12:55;5.80;;;5.30;;
6898;SDS011;3488;42.616;23.350;2022-08-19T14:15:24;4.78;;;4.38;;
6898;SDS011;3488;42.616;23.350;2022-08-19T14:17:51;5.47;;;5.05;;
6898;SDS011;3488;42.616;23.350;2022-08-19T14:20:19;6.78;;;5.20;;
6898;SDS011;3488;42.616;23.350;2022-08-19T14:22:47;7.18;;;5.05;;
6898;SDS011;3488;42.616;23.350;2022-08-19T14:25:16;5.63;;;5.18;;
6898;SDS011;3488;42.616;23.350;2022-08-19T14:27:45;5.75;;;5.25;;
6898;SDS011;3488;42.616;23.350;2022-08-19T14:30:15;5.35;;;4.82;;
6898;SDS011;3488;42.616;23.350;2022-08-19T14:32:44;6.57;;;4.95;;
6898;SDS011;3488;42.616;23.350;2022-08-19T14:35:12;6.18;;;4.78;;
6898;SDS011;3488;42.616;23.350;2022-08-19T14:37:43;5.50;;;5.10;;
6898;SDS011;3488;42.616;23.350;2022-08-19T14:40:12;6.28;;;5.60;;
6898;SDS011;3488;42.616;23.350;2022-08-19T14:42:40;8.18;;;5.07;;
6898;SDS011;3488;42.616;23.350;2022-08-19T14:45:08;5.55;;;4.93;;
6898;SDS011;3488;42.616;23.350;2022-08-19T14:47:38;5.68;;;5.28;;
6898;SDS011;3488;42.616;23.350;2022-08-19T14:50:07;5.60;;;5.30;;
6898;SDS011;3488;42.616;23.350;2022-08-19T14:52:36;5.40;;;4.97;;
6898;SDS011;3488;42.616;23.350;2022-08-19T14:55:05;5.22;;;4.88;;
6898;SDS011;3488;42.616;23.350;2022-08-19T14:57:32;6.32;;;4.95;;
6898;SDS011;3488;42.616;23.350;2022-08-19T14:59:59;5.05;;;4.75;;
6898;SDS011;3488;42.616;23.350;2022-08-19T15:02:26;6.40;;;5.45;;
6898;SDS011;3488;42.616;23.350;2022-08-19T15:04:55;5.43;;;5.10;;
6898;SDS011;3488;42.616;23.350;2022-08-19T15:07:22;5.47;;;5.05;;
6898;SDS011;3488;42.616;23.350;2022-08-19T15:09:49;5.93;;;5.43;;
6898;SDS011;3488;42.616;23.350;2022-08-19T15:12:17;6.93;;;4.72;;
6898;SDS011;3488;42.616;23.350;2022-08-19T15:14:44;5.97;;;4.82;;
6898;SDS011;3488;42.616;23.350;2022-08-19T15:17:15;5.28;;;4.72;;
6898;SDS011;3488;42.616;23.350;2022-08-19T15:19:44;5.55;;;5.05;;
6898;SDS011;3488;42.616;23.350;2022-08-19T15:22:13;5.65;;;5.22;;
6898;SDS011;3488;42.616;23.350;2022-08-19T15:24:40;10.90;;;5.03;;
6898;SDS011;3488;42.616;23.350;2022-08-19T15:27:10;6.53;;;5.20;;
6898;SDS011;3488;42.616;23.350;2022-08-19T15:29:37;5.10;;;4.68;;
6898;SDS011;3488;42.616;23.350;2022-08-19T15:32:05;5.93;;;5.25;;
6898;SDS011;3488;42.616;23.350;2022-08-19T15:34:33;6.05;;;5.55;;
6898;SDS011;3488;42.616;23.350;2022-08-19T15:37:00;6.95;;;5.25;;
6898;SDS011;3488;42.616;23.350;2022-08-19T15:39:30;5.78;;;5.22;;
6898;SDS011;3488;42.616;23.350;2022-08-19T15:41:57;5.13;;;4.78;;
6898;SDS011;3488;42.616;23.350;2022-08-19T15:44:26;5.60;;;5.10;;
6898;SDS011;3488;42.616;23.350;2022-08-19T15:46:54;6.13;;;5.53;;
6898;SDS011;3488;42.616;23.350;2022-08-19T15:49:21;5.43;;;4.97;;
6898;SDS011;3488;42.616;23.350;2022-08-19T15:51:48;11.52;;;5.53;;
6898;SDS011;3488;42.616;23.350;2022-08-19T15:54:17;6.15;;;5.65;;
6898;SDS011;3488;42.616;23.350;2022-08-19T15:56:48;5.95;;;4.78;;
6898;SDS011;3488;42.616;23.350;2022-08-19T15:59:34;6.15;;;5.65;;
6898;SDS011;3488;42.616;23.350;2022-08-19T16:02:20;5.25;;;4.72;;
6898;SDS011;3488;42.616;23.350;2022-08-19T16:05:08;7.05;;;6.38;;
6898;SDS011;3488;42.616;23.350;2022-08-19T16:07:56;6.60;;;4.90;;
6898;SDS011;3488;42.616;23.350;2022-08-19T16:10:23;5.57;;;5.07;;
6898;SDS011;3488;42.616;23.350;2022-08-19T16:12:52;6.03;;;5.45;;
6898;SDS011;3488;42.616;23.350;2022-08-19T16:15:19;5.70;;;5.22;;
6898;SDS011;3488;42.616;23.350;2022-08-19T16:17:47;5.85;;;5.43;;
6898;SDS011;3488;42.616;23.350;2022-08-19T16:20:14;7.13;;;5.75;;
6898;SDS011;3488;42.616;23.350;2022-08-19T16:22:41;6.28;;;5.28;;
6898;SDS011;3488;42.616;23.350;2022-08-19T16:25:09;7.00;;;5.10;;
6898;SDS011;3488;42.616;23.350;2022-08-19T16:27:36;6.10;;;5.60;;
6898;SDS011;3488;42.616;23.350;2022-08-19T16:30:06;5.88;;;5.18;;
6898;SDS011;3488;42.616;23.350;2022-08-19T16:32:34;5.85;;;5.38;;
6898;SDS011;3488;42.616;23.350;2022-08-19T16:35:02;5.07;;;4.68;;
6898;SDS011;3488;42.616;23.350;2022-08-19T16:37:30;5.68;;;5.22;;
6898;SDS011;3488;42.616;23.350;2022-08-19T16:39:58;7.20;;;5.03;;
6898;SDS011;3488;42.616;23.350;2022-08-19T16:42:25;5.72;;;5.32;;
6898;SDS011;3488;42.616;23.350;2022-08-19T16:44:52;6.35;;;5.85;;
6898;SDS011;3488;42.616;23.350;2022-08-19T16:47:20;5.25;;;4.70;;